Terminal Aerodrome Forecast
Issued by NWS

Home | Current Version | Previous Version | Text Only | Print | Product List | Glossary On
Versions: 1 2 3 4 5 6 7 8 9 10 11 12 13 14 15 16 17 18 19 20 21 22 23 24 25 26
000
FTUS44 KOUN 231728
TAFGAG
TAF
KGAG 231728Z 2318/2418 14014G20KT 3SM -TSRA BR SCT008 OVC040CB
      TEMPO 2318/2320 VRB20KT 1SM +TSRA BR OVC008CB
     FM240100 16013KT 4SM BR OVC006
     FM241500 18014G20KT P6SM BKN015 OVC030=

USA.gov is the U.S. government's official web portal to all federal, state and local government web resources and services.